Fort St John Airport
CYXJ : now visible

Airfield :











YOU CAN JOIN US ON...

 
LOGIN :

Register | Disclaimer

   EN    FR    IT 

 









Legend :    VFR   Marginal VFR   IFR   Intensive IFR   Very Intensive IFR
Visi :
Ceiling :
>= 8 km
>= 3000ft
5 to 8 km
1000 to 3000 ft
1500m to 5 km
500 to 1000 ft
800 to 1500m
200 to 500 ft
< 800m
< 200 ft
Symbols :   Thunderstorms  Fog  Heavy snow  Heavy precipitations  Wind > 20 kt






- Airport Elevation : 2280 ft
- IATA code : YXJ


CYXJ - Fort St John

CURRENT METAR :
  • 250500Z 21006KT 60SM FEW085 BKN110 13/05 A2957 RMK AC1AC5 SLP023 DENSITY ALT 3000FT

EXPIRED METARs :
  • 250400Z 23009KT 60SM BKN076 BKN110 14/05 A2956 RMK AC5AC1 VIRGA SLP022 DENSITY ALT 3200FT
  • 250346Z 23010G15KT 60SM BKN070 BKN100 14/06 A2956 RMK AC5AC1 VIRGA SLP021 DENSITY ALT 3200FT
  • 250300Z VRB03KT 60SM BKN056TCU BKN150 14/06 A2958 RMK TCU5AC1 CB TOPS DIST N + E SLP027 DENSITY ALT 3100FT
  • 250217Z 23012KT 60SM -SHRA BKN057CB BKN150 16/04 A2957 RMK CB5AC1 SLP023 DENSITY ALT 3400FT
  • 250200Z 21004KT 60SM VCSH BKN059CB BKN150 17/06 A2957 RMK CB5AC1 SLP022 DENSITY ALT 3400FT
  • 250100Z VRB02KT 60SM VCSH SCT081CB BKN120 17/04 A2956 RMK CB4AC2 SLP023 DENSITY ALT 3500FT

TAF TAF CYXJ
Valid from the 25 at 01:00 until the 25 at 13:00 UTC


250040Z 2501/2513 31006KT P6SM SCT070 BKN120
TEMPO 2501/2505 P6SM -SHRA BKN060 BKN120
FM250500 14006KT P6SM BKN060
TEMPO 2505/2513 P6SM -SHRA BKN040 RMK NXT FCST BY 250700Z
CZEG FIR / North America



MET'MAP, your aeronautical weather chart ! - Copyright ORBIFLY December 2007 - Disclaimer

ORBIFLY MET'MAP TEAM :

Programming & Development : Alexandra Zaïnal
Original concept : Baudouin d'Aumeries
Technical & hardware support : Manuel Goepfert
Assistance : Marc-Olivier Méhu




SOURCES & CREDITS :

   NOAA       Earth
Advisory